Time;durP1;ratioP1;P1;durP2;ratioP2;P2;SDS_P1;SDS_P2;PMS_P1;PMS_P2;Temp;Humidity;BMP_temperature;BMP_pressure;BME280_temperature;BME280_humidity;BME280_pressure;Samples;Min_cycle;Max_cycle;Signal;HPM_P1;HPM_P2
2022/10/14 00:06:25;;;;;;;45.97;19.90;;;14.10;28.00;;;;;;5075182;28;20483;-88
2022/10/14 00:09:17;;;;;;;41.13;20.23;;;14.20;28.10;;;;;;5074797;28;20428;-88
2022/10/14 00:15:46;;;;;;;40.70;20.20;;;14.20;27.10;;;;;;5078079;28;20414;-87
2022/10/14 00:21:36;;;;;;;43.40;19.57;;;14.30;24.00;;;;;;5078305;28;20555;-87
2022/10/14 00:24:17;;;;;;;37.33;20.13;;;14.30;22.00;;;;;;5087829;28;20442;-88
2022/10/14 00:30:23;;;;;;;47.77;20.20;;;14.30;22.10;;;;;;5074466;28;20448;-88
2022/10/14 00:33:05;;;;;;;51.30;21.13;;;14.30;23.10;;;;;;5074005;28;20833;-79
2022/10/14 00:36:10;;;;;;;40.03;19.77;;;14.30;23.00;;;;;;5080619;28;20508;-79
2022/10/14 00:49:22;;;;;;;37.50;19.20;;;14.30;23.90;;;;;;5081229;28;20441;-79
2022/10/14 00:51:54;;;;;;;47.80;17.77;;;14.30;22.40;;;;;;5076487;28;20828;-79
2022/10/14 00:55:03;;;;;;;34.63;18.87;;;14.30;22.80;;;;;;5091787;28;20456;-79
2022/10/14 00:57:30;;;;;;;33.80;18.90;;;14.30;26.40;;;;;;5081237;28;20511;-78
2022/10/14 01:00:23;;;;;;;42.20;18.33;;;14.30;22.60;;;;;;5073553;28;20450;-79
2022/10/14 01:03:26;;;;;;;32.30;18.17;;;14.40;22.10;;;;;;5073794;28;20963;-88
2022/10/14 01:10:05;;;;;;;35.37;17.70;;;14.40;20.90;;;;;;5090431;28;20415;-88
2022/10/14 01:12:44;;;;;;;35.07;17.27;;;14.40;21.10;;;;;;5090607;28;20424;-87
2022/10/14 01:15:35;;;;;;;35.40;17.20;;;14.30;18.60;;;;;;5092342;28;20514;-88
2022/10/14 01:25:16;;;;;;;32.67;17.40;;;14.40;20.60;;;;;;5076902;28;20504;-88
2022/10/14 01:31:10;;;;;;;36.53;16.63;;;14.30;19.40;;;;;;5079912;28;21009;-88
2022/10/14 01:34:01;;;;;;;28.70;16.30;;;14.40;19.70;;;;;;5078188;28;20508;-79
2022/10/14 01:36:57;;;;;;;29.93;16.07;;;14.40;18.20;;;;;;5081224;28;20425;-79
2022/10/14 01:39:36;;;;;;;42.23;17.10;;;14.40;18.50;;;;;;5075967;28;20425;-79
2022/10/14 01:48:52;;;;;;;34.10;16.90;;;14.40;18.50;;;;;;5079362;28;20449;-79
2022/10/14 01:51:34;;;;;;;31.60;17.40;;;14.40;21.70;;;;;;5078989;28;20417;-79
2022/10/14 01:54:16;;;;;;;33.57;18.00;;;14.40;18.50;;;;;;5076283;28;20450;-79
2022/10/14 01:56:48;;;;;;;31.90;17.70;;;14.40;17.20;;;;;;5083827;28;20411;-79
2022/10/14 02:02:47;;;;;;;33.77;17.77;;;14.40;21.90;;;;;;5082160;28;20574;-79
2022/10/14 02:05:47;;;;;;;34.23;18.07;;;14.40;20.80;;;;;;5083686;28;20413;-79
2022/10/14 02:08:52;;;;;;;39.90;17.33;;;14.40;19.50;;;;;;5080756;28;20409;-79
2022/10/14 02:12:01;;;;;;;30.23;17.10;;;14.40;19.50;;;;;;5072940;28;20402;-79
2022/10/14 02:15:16;;;;;;;31.77;17.30;;;14.40;19.20;;;;;;5048695;28;20411;-79
2022/10/14 02:21:41;;;;;;;36.87;18.13;;;14.40;20.30;;;;;;5053382;28;20500;-87
2022/10/14 02:24:22;;;;;;;29.83;16.83;;;14.40;21.90;;;;;;5035970;28;20426;-88
2022/10/14 02:27:15;;;;;;;31.50;17.53;;;14.40;21.90;;;;;;5021794;28;20423;-88
2022/10/14 02:29:43;;;;;;;29.37;16.23;;;14.40;20.20;;;;;;5038214;28;20428;-88
2022/10/14 02:35:33;;;;;;;36.13;16.83;;;14.40;20.40;;;;;;5053853;28;20496;-79
2022/10/14 02:38:00;;;;;;;32.53;17.77;;;14.40;18.90;;;;;;5044845;28;20803;-79
2022/10/14 02:44:40;;;;;;;28.30;16.30;;;14.40;18.40;;;;;;5042346;28;20452;-78
2022/10/14 02:47:14;;;;;;;32.10;15.83;;;14.40;17.70;;;;;;5049606;28;20418;-79
2022/10/14 02:50:05;;;;;;;31.13;16.97;;;14.60;16.50;;;;;;5053616;28;20820;-79
2022/10/14 02:55:52;;;;;;;40.37;16.03;;;14.50;15.10;;;;;;5086567;28;20950;-79
2022/10/14 03:02:11;;;;;;;46.10;16.70;;;14.50;13.70;;;;;;5082443;28;20221;-78
2022/10/14 03:04:37;;;;;;;33.67;17.80;;;14.50;12.70;;;;;;5092836;28;20467;-88
2022/10/14 03:07:35;;;;;;;39.70;17.70;;;14.50;12.90;;;;;;5098444;28;20792;-88
2022/10/14 03:10:41;;;;;;;35.67;17.30;;;14.50;14.50;;;;;;5075868;28;20203;-89
2022/10/14 03:13:41;;;;;;;40.07;16.97;;;14.50;14.00;;;;;;5089786;28;20847;-88
2022/10/14 03:16:41;;;;;;;30.53;16.43;;;14.40;14.90;;;;;;5079449;28;20410;-88
2022/10/14 03:23:05;;;;;;;34.87;16.17;;;14.40;17.40;;;;;;5079503;28;20458;-88
2022/10/14 03:29:11;;;;;;;39.10;17.00;;;14.50;15.00;;;;;;5076965;28;20938;-88
2022/10/14 03:31:59;;;;;;;35.43;17.50;;;14.40;15.40;;;;;;5100692;28;20447;-88
2022/10/14 03:34:41;;;;;;;33.43;17.27;;;14.40;17.80;;;;;;5091281;28;20428;-78
2022/10/14 03:44:11;;;;;;;38.07;18.07;;;14.50;18.80;;;;;;5086581;28;20958;-78
2022/10/14 03:46:53;;;;;;;33.00;16.23;;;14.40;19.10;;;;;;5092734;28;20389;-79
2022/10/14 03:50:10;;;;;;;33.20;16.87;;;14.30;23.80;;;;;;5076046;28;20474;-88
2022/10/14 03:55:58;;;;;;;33.87;16.80;;;14.30;29.20;;;;;;5078566;28;20486;-89
2022/10/14 04:05:23;;;;;;;39.63;17.90;;;14.30;29.10;;;;;;5075532;28;20395;-88
2022/10/14 04:08:35;;;;;;;26.80;15.60;;;14.20;35.60;;;;;;5087346;28;20459;-88
2022/10/14 04:11:00;;;;;;;31.40;16.23;;;14.30;34.60;;;;;;5077589;28;20791;-89
2022/10/14 04:17:11;;;;;;;37.77;15.90;;;14.40;28.90;;;;;;5080534;28;20181;-88
2022/10/14 04:20:11;;;;;;;36.93;15.50;;;14.40;29.40;;;;;;5082479;28;20428;-79
2022/10/14 04:22:53;;;;;;;36.60;15.97;;;14.40;29.80;;;;;;5076677;28;20432;-82
2022/10/14 04:26:11;;;;;;;30.70;16.60;;;14.30;30.90;;;;;;5076208;28;20525;-77
2022/10/14 04:35:29;;;;;;;38.37;15.80;;;14.40;32.20;;;;;;5079634;28;20368;-83
2022/10/14 04:38:23;;;;;;;38.83;16.10;;;14.40;29.80;;;;;;5075032;28;20414;-82
2022/10/14 04:47:35;;;;;;;31.13;14.83;;;14.40;31.30;;;;;;5078835;28;20380;-82
2022/10/14 04:50:06;;;;;;;36.93;15.40;;;14.30;33.80;;;;;;5080000;28;20955;-77
2022/10/14 04:52:47;;;;;;;33.20;15.17;;;14.30;38.30;;;;;;5089263;28;20957;-77
2022/10/14 04:56:05;;;;;;;33.43;14.50;;;14.30;40.90;;;;;;5080602;28;20486;-78
2022/10/14 04:58:31;;;;;;;27.37;15.20;;;14.40;40.70;;;;;;5088063;28;20414;-77
2022/10/14 05:01:11;;;;;;;32.33;15.10;;;14.40;38.10;;;;;;5085472;28;20463;-78
2022/10/14 05:10:27;;;;;;;32.23;14.97;;;14.40;32.40;;;;;;5076813;28;20420;-82
2022/10/14 05:19:37;;;;;;;29.47;13.67;;;14.50;29.20;;;;;;5076930;28;20474;-77
2022/10/14 05:22:29;;;;;;;30.00;15.30;;;14.40;30.60;;;;;;5073106;28;20907;-77
2022/10/14 05:25:06;;;;;;;27.07;15.17;;;14.30;33.40;;;;;;5077682;28;20175;-77
2022/10/14 05:27:32;;;;;;;30.40;15.53;;;14.40;44.60;;;;;;5079713;28;20435;-78
2022/10/14 05:30:32;;;;;;;30.13;14.80;;;14.30;42.20;;;;;;5072670;28;20778;-77
2022/10/14 05:33:06;;;;;;;29.60;15.50;;;14.40;45.40;;;;;;5081905;28;20174;-77
2022/10/14 05:38:57;;;;;;;31.67;15.37;;;14.50;34.60;;;;;;5093476;28;20380;-83
2022/10/14 05:41:24;;;;;;;32.50;14.63;;;14.30;32.30;;;;;;5087033;28;20452;-83
2022/10/14 05:50:34;;;;;;;25.27;14.63;;;14.40;31.80;;;;;;5073551;28;20490;-77
2022/10/14 05:53:00;;;;;;;25.60;15.80;;;14.50;31.20;;;;;;5094803;28;20438;-77
2022/10/14 05:55:26;;;;;;;33.13;14.73;;;14.50;27.30;;;;;;5084118;28;20215;-77
2022/10/14 05:57:55;;;;;;;27.87;14.90;;;14.50;28.00;;;;;;5076669;28;20907;-78
2022/10/14 06:03:43;;;;;;;30.93;14.40;;;14.60;26.50;;;;;;5082931;28;20421;-68
2022/10/14 06:06:15;;;;;;;27.73;15.77;;;14.60;26.20;;;;;;5087885;28;20420;-71
2022/10/14 06:08:41;;;;;;;28.63;15.60;;;14.60;25.20;;;;;;5084169;28;20213;-69
2022/10/14 06:11:07;;;;;;;28.53;14.80;;;14.60;23.20;;;;;;5087352;28;20454;-68
2022/10/14 06:13:34;;;;;;;34.33;14.50;;;14.70;22.00;;;;;;5078161;28;20399;-68
2022/10/14 06:16:08;;;;;;;27.93;14.83;;;14.70;22.60;;;;;;5087246;28;20425;-68
2022/10/14 06:18:34;;;;;;;26.77;14.30;;;14.70;19.40;;;;;;5089656;28;20819;-68
2022/10/14 06:21:01;;;;;;;35.20;14.80;;;14.70;18.90;;;;;;5079304;28;20449;-68
2022/10/14 06:23:35;;;;;;;23.50;13.53;;;14.70;20.20;;;;;;5088793;28;20930;-74
2022/10/14 06:26:23;;;;;;;26.13;13.60;;;14.80;19.60;;;;;;5084376;28;20929;-74
2022/10/14 06:28:59;;;;;;;25.83;14.30;;;14.80;18.40;;;;;;5081149;28;20427;-75
2022/10/14 06:31:29;;;;;;;31.27;14.00;;;14.80;17.90;;;;;;5076805;28;20470;-76
2022/10/14 06:34:03;;;;;;;29.23;14.27;;;14.80;20.60;;;;;;5087185;28;20412;-75
2022/10/14 06:36:28;;;;;;;31.10;14.77;;;14.80;16.00;;;;;;5093038;28;20409;-74
2022/10/14 06:39:00;;;;;;;24.80;13.93;;;14.80;16.80;;;;;;5093176;28;20426;-74
2022/10/14 06:41:41;;;;;;;25.00;13.43;;;14.90;16.10;;;;;;5091974;28;20186;-74
2022/10/14 06:44:18;;;;;;;25.87;14.20;;;14.90;14.40;;;;;;5090512;28;20781;-74
2022/10/14 06:46:44;;;;;;;27.13;14.63;;;14.90;14.10;;;;;;5088661;28;20425;-74
2022/10/14 06:49:18;;;;;;;31.33;14.90;;;15.00;11.70;;;;;;5077717;28;20416;-74
2022/10/14 06:51:44;;;;;;;30.20;12.87;;;14.90;10.90;;;;;;5085447;28;20179;-74
2022/10/14 06:54:09;;;;;;;28.93;15.20;;;15.00;12.50;;;;;;5075228;28;20421;-74
2022/10/14 06:56:48;;;;;;;32.30;13.97;;;15.00;11.20;;;;;;5090793;28;20764;-75
2022/10/14 06:59:14;;;;;;;24.67;12.77;;;15.10;11.40;;;;;;5092595;28;20537;-75
2022/10/14 07:01:54;;;;;;;26.93;14.67;;;15.20;9.20;;;;;;5077403;28;20427;-75
2022/10/14 07:04:21;;;;;;;35.70;14.37;;;15.20;7.10;;;;;;5085601;28;20420;-75
2022/10/14 07:06:50;;;;;;;24.90;14.27;;;15.20;4.40;;;;;;5082214;28;20466;-74
2022/10/14 07:09:18;;;;;;;27.67;13.20;;;15.30;3.20;;;;;;5088451;28;20420;-74
2022/10/14 07:11:47;;;;;;;28.77;14.77;;;15.30;2.20;;;;;;5078746;28;20416;-74
2022/10/14 07:14:29;;;;;;;25.50;13.90;;;15.40;1.00;;;;;;5089205;28;20499;-74
2022/10/14 07:17:00;;;;;;;25.23;14.40;;;15.40;1.00;;;;;;5080266;28;20410;-74
2022/10/14 07:19:29;;;;;;;30.97;13.80;;;15.40;1.00;;;;;;5077859;28;20463;-74
2022/10/14 07:22:00;;;;;;;25.13;12.67;;;15.50;1.00;;;;;;5084162;28;20981;-74
2022/10/14 07:24:42;;;;;;;23.23;13.53;;;15.50;1.00;;;;;;5076823;28;20451;-75
2022/10/14 07:27:19;;;;;;;28.97;14.27;;;15.50;1.00;;;;;;5077829;28;20885;-74
2022/10/14 07:30:23;;;;;;;28.67;15.10;;;15.50;1.00;;;;;;5087614;28;20431;-74
2022/10/14 07:32:53;;;;;;;34.07;15.43;;;15.50;1.00;;;;;;5081638;28;20395;-75
2022/10/14 07:35:19;;;;;;;37.17;16.20;;;15.50;1.00;;;;;;5081084;28;20431;-75
2022/10/14 07:37:46;;;;;;;27.70;15.00;;;15.50;1.00;;;;;;5083486;28;20969;-74
2022/10/14 07:40:18;;;;;;;28.20;15.10;;;15.60;1.00;;;;;;5083023;28;20421;-74
2022/10/14 07:42:48;;;;;;;29.00;15.60;;;15.60;1.00;;;;;;5090698;28;20404;-74
2022/10/14 07:45:16;;;;;;;28.10;16.53;;;15.70;1.00;;;;;;5087197;28;20466;-74
2022/10/14 07:51:05;;;;;;;29.00;16.43;;;15.70;1.00;;;;;;5076252;28;20865;-74
2022/10/14 07:53:36;;;;;;;32.80;16.00;;;15.70;1.00;;;;;;5079204;28;20416;-74
2022/10/14 07:56:05;;;;;;;35.90;16.80;;;15.70;1.00;;;;;;5074387;28;20439;-74
2022/10/14 07:58:53;;;;;;;33.53;15.97;;;15.70;1.00;;;;;;5076258;28;20958;-74
2022/10/14 08:01:30;;;;;;;33.43;17.07;;;15.70;1.00;;;;;;5090415;28;20447;-74
2022/10/14 08:03:56;;;;;;;34.20;17.10;;;15.70;1.00;;;;;;5081326;28;20424;-74
2022/10/14 08:07:17;;;;;;;31.33;17.63;;;15.60;1.00;;;;;;5081986;28;20395;-75
2022/10/14 08:09:54;;;;;;;29.40;15.37;;;15.60;1.00;;;;;;5081588;28;20175;-76
2022/10/14 08:12:41;;;;;;;35.60;17.60;;;15.60;1.00;;;;;;5075405;28;20452;-77
2022/10/14 08:18:28;;;;;;;32.13;18.20;;;15.50;1.40;;;;;;5090399;28;20432;-76
2022/10/14 08:24:16;;;;;;;35.10;17.40;;;15.70;1.00;;;;;;5074168;28;20193;-80
2022/10/14 08:27:25;;;;;;;32.40;17.97;;;15.90;1.00;;;;;;5081599;28;20486;-78
2022/10/14 08:30:47;;;;;;;27.23;17.03;;;16.10;1.00;;;;;;5079552;28;20428;-80
2022/10/14 08:33:18;;;;;;;31.90;14.53;;;16.20;1.00;;;;;;5090545;28;20993;-75
2022/10/14 08:36:05;;;;;;;29.50;16.70;;;16.30;1.00;;;;;;5111032;28;20922;-75
2022/10/14 08:38:33;;;;;;;27.37;15.63;;;16.30;1.00;;;;;;5081969;28;20415;-78
2022/10/14 08:41:21;;;;;;;26.83;15.90;;;16.40;1.00;;;;;;5102765;28;20429;-75
2022/10/14 08:43:46;;;;;;;32.70;14.80;;;16.60;1.00;;;;;;5082499;28;20422;-74
2022/10/14 08:46:25;;;;;;;29.33;15.60;;;16.80;1.00;;;;;;5076313;28;20411;-73
2022/10/14 08:49:06;;;;;;;27.53;14.53;;;16.80;1.00;;;;;;5075029;28;20199;-72
2022/10/14 08:51:32;;;;;;;27.40;14.50;;;16.60;1.00;;;;;;5097398;28;20422;-72
2022/10/14 08:54:34;;;;;;;26.17;14.40;;;16.70;1.00;;;;;;5077469;28;20832;-76
2022/10/14 08:57:19;;;;;;;23.03;13.80;;;16.80;1.00;;;;;;5090224;28;20424;-75
2022/10/14 08:59:54;;;;;;;34.63;14.67;;;16.70;1.00;;;;;;5082100;28;20477;-77
2022/10/14 09:02:59;;;;;;;22.70;14.27;;;16.60;1.00;;;;;;5080569;28;20831;-77
2022/10/14 09:08:49;;;;;;;22.07;12.53;;;16.60;1.00;;;;;;5079534;28;20488;-75
2022/10/14 09:11:24;;;;;;;24.00;14.13;;;16.70;1.00;;;;;;5074685;28;20817;-73
2022/10/14 09:14:14;;;;;;;23.17;13.20;;;16.70;1.00;;;;;;5072512;28;20429;-76
2022/10/14 09:16:51;;;;;;;23.00;12.97;;;16.80;1.00;;;;;;5085118;28;20396;-76
2022/10/14 09:23:18;;;;;;;31.17;16.93;;;17.00;1.00;;;;;;5079239;28;20442;-77
2022/10/14 09:26:29;;;;;;;131.23;85.93;;;17.00;1.00;;;;;;5012520;28;20509;-77
2022/10/14 09:29:25;;;;;;;402.47;241.00;;;17.10;1.00;;;;;;5017585;28;20523;-76
2022/10/14 09:35:50;;;;;;;121.27;69.83;;;17.10;1.00;;;;;;5013614;28;20423;-77
2022/10/14 09:38:30;;;;;;;104.50;67.90;;;17.20;1.00;;;;;;4967049;28;20406;-75
2022/10/14 09:41:00;;;;;;;25.50;14.40;;;17.30;1.00;;;;;;4970039;28;20586;-75
2022/10/14 09:44:20;;;;;;;150.87;99.10;;;17.30;1.00;;;;;;4963242;28;20475;-75
2022/10/14 09:46:57;;;;;;;136.23;76.20;;;17.30;1.00;;;;;;4903042;29;20505;-75
2022/10/14 09:49:50;;;;;;;80.70;42.80;;;17.30;1.00;;;;;;4901346;29;20531;-75
2022/10/14 09:52:24;;;;;;;51.30;24.47;;;17.30;1.00;;;;;;4903931;29;20442;-76
2022/10/14 09:54:57;;;;;;;74.47;36.37;;;17.30;1.00;;;;;;4901243;29;20437;-75
2022/10/14 09:57:24;;;;;;;490.90;232.37;;;17.40;1.00;;;;;;4901605;29;20401;-73
2022/10/14 09:59:54;;;;;;;401.63;194.83;;;17.50;1.00;;;;;;4901911;29;20921;-73
2022/10/14 10:02:45;;;;;;;440.27;191.77;;;17.60;1.00;;;;;;4952504;28;20497;-76
2022/10/14 10:05:59;;;;;;;572.17;329.67;;;17.80;1.00;;;;;;4953185;28;20936;-75
2022/10/14 10:11:46;;;;;;;549.97;321.70;;;18.20;1.00;;;;;;4975448;28;20387;-77
2022/10/14 10:17:39;;;;;;;118.73;54.67;;;18.80;1.00;;;;;;5031345;28;20514;-77
2022/10/14 10:27:18;;;;;;;49.93;26.33;;;19.40;1.00;;;;;;5088124;28;20426;-78
2022/10/14 10:29:44;;;;;;;44.40;25.23;;;19.30;1.00;;;;;;5079697;28;20518;-72
2022/10/14 10:32:23;;;;;;;52.10;31.63;;;19.30;1.00;;;;;;5091250;28;20466;-72
2022/10/14 10:41:41;;;;;;;15.93;7.27;;;19.00;1.00;;;;;;5076933;28;20474;-77
2022/10/14 10:44:27;;;;;;;24.87;14.83;;;18.70;1.00;;;;;;5078271;28;20435;-78
2022/10/14 10:47:14;;;;;;;45.70;22.63;;;18.80;1.00;;;;;;5075873;28;20370;-77
2022/10/14 10:53:35;;;;;;;108.47;55.73;;;18.70;1.00;;;;;;5087141;28;20410;-78
2022/10/14 10:56:32;;;;;;;31.33;15.07;;;18.90;1.00;;;;;;5075950;28;20413;-77
2022/10/14 10:59:30;;;;;;;62.43;30.93;;;19.00;1.00;;;;;;5089064;28;20399;-77
2022/10/14 11:05:56;;;;;;;31.33;14.23;;;19.10;1.00;;;;;;5089837;28;20888;-77
2022/10/14 11:12:11;;;;;;;121.00;60.87;;;19.20;1.00;;;;;;5013097;28;20430;-78
2022/10/14 11:18:35;;;;;;;106.30;51.87;;;18.90;1.00;;;;;;5010324;28;20946;-77
2022/10/14 11:25:05;;;;;;;16.47;8.30;;;18.60;1.00;;;;;;5006970;28;20426;-79
2022/10/14 11:28:23;;;;;;;39.20;17.13;;;18.50;1.00;;;;;;5013346;28;20466;-78
2022/10/14 11:34:39;;;;;;;18.27;10.40;;;18.10;1.00;;;;;;5012535;28;20901;-77
2022/10/14 11:41:00;;;;;;;384.43;161.80;;;18.40;1.00;;;;;;5012891;28;20894;-77
2022/10/14 11:44:20;;;;;;;413.93;193.70;;;18.50;1.00;;;;;;5013119;28;20879;-79
2022/10/14 11:47:24;;;;;;;14.70;8.30;;;18.60;1.00;;;;;;5009663;28;20508;-78
2022/10/14 11:56:42;;;;;;;27.33;16.73;;;18.60;1.00;;;;;;4993977;28;20778;-80
2022/10/14 11:59:35;;;;;;;26.33;10.40;;;18.60;1.00;;;;;;4993047;28;20451;-79
2022/10/14 12:02:40;;;;;;;49.50;31.87;;;18.80;1.00;;;;;;4996247;28;20986;-80
2022/10/14 12:05:36;;;;;;;11.03;7.13;;;18.80;1.00;;;;;;5000519;28;20485;-78
2022/10/14 12:11:33;;;;;;;58.13;30.60;;;18.30;1.00;;;;;;4927791;29;20493;-81
2022/10/14 12:20:54;;;;;;;13.73;5.77;;;18.00;1.00;;;;;;4952652;28;20473;-84
2022/10/14 12:23:36;;;;;;;12.67;7.00;;;17.90;1.00;;;;;;4988676;28;20561;-82
2022/10/14 12:26:53;;;;;;;11.37;5.50;;;17.80;1.00;;;;;;5002753;28;20905;-82
2022/10/14 12:29:49;;;;;;;12.37;6.40;;;17.70;1.00;;;;;;4996570;28;20832;-85
2022/10/14 12:32:53;;;;;;;9.60;5.47;;;17.50;1.00;;;;;;4995558;28;20532;-84
2022/10/14 12:42:11;;;;;;;9.00;5.60;;;17.40;1.00;;;;;;5008901;28;20470;-79
2022/10/14 12:45:16;;;;;;;9.70;5.83;;;17.20;1.00;;;;;;5021465;28;20437;-79
2022/10/14 12:57:53;;;;;;;8.07;5.27;;;17.00;1.00;;;;;;5087142;28;20436;-85
2022/10/14 13:00:22;;;;;;;14.70;5.33;;;16.80;1.00;;;;;;5085295;28;20442;-85
2022/10/14 13:06:39;;;;;;;10.57;5.40;;;16.70;1.00;;;;;;5079756;28;20376;-84
2022/10/14 13:09:30;;;;;;;8.43;5.93;;;16.60;1.00;;;;;;5079738;28;20914;-84
2022/10/14 13:15:48;;;;;;;7.13;5.90;;;16.70;1.00;;;;;;5086692;28;20420;-85
2022/10/14 13:18:34;;;;;;;12.93;5.83;;;16.80;1.00;;;;;;5076012;28;20477;-85
2022/10/14 13:21:01;;;;;;;13.00;6.20;;;16.80;1.00;;;;;;5081588;28;20482;-85
2022/10/14 13:23:30;;;;;;;8.50;5.10;;;16.80;1.00;;;;;;5085157;28;20201;-85
2022/10/14 13:26:47;;;;;;;9.53;6.13;;;16.90;1.00;;;;;;5085966;28;20376;-80
2022/10/14 13:32:46;;;;;;;9.80;5.80;;;16.90;1.00;;;;;;5080411;28;20500;-80
2022/10/14 13:41:57;;;;;;;10.17;5.97;;;17.10;1.00;;;;;;5075349;28;20472;-80
2022/10/14 13:51:13;;;;;;;11.30;5.87;;;17.00;1.00;;;;;;5081945;28;20914;-80
2022/10/14 14:07:14;;;;;;;9.00;6.10;;;16.90;1.00;;;;;;5073873;28;20408;-81
2022/10/14 14:10:24;;;;;;;7.23;5.90;;;17.00;1.00;;;;;;5082634;28;20407;-82
2022/10/14 14:13:24;;;;;;;7.83;6.47;;;16.90;1.00;;;;;;5080411;28;20429;-89
2022/10/14 14:15:52;;;;;;;9.87;6.20;;;16.90;1.00;;;;;;5093144;28;20482;-74
2022/10/14 14:18:39;;;;;;;9.37;6.43;;;16.70;1.00;;;;;;5079899;28;20475;-75
2022/10/14 14:21:10;;;;;;;17.77;6.60;;;16.60;1.00;;;;;;5090366;28;20470;-74
2022/10/14 14:23:36;;;;;;;15.27;7.20;;;16.70;1.00;;;;;;5088158;28;20917;-74
2022/10/14 14:26:01;;;;;;;10.33;6.73;;;16.70;1.00;;;;;;5093671;28;20392;-74
2022/10/14 14:31:50;;;;;;;10.23;6.23;;;16.70;1.00;;;;;;5075418;28;20603;-78
2022/10/14 14:34:48;;;;;;;9.20;6.90;;;16.80;1.00;;;;;;5082585;28;20523;-79
2022/10/14 14:37:36;;;;;;;11.73;7.10;;;16.80;1.00;;;;;;5081146;28;20404;-82
2022/10/14 14:40:20;;;;;;;13.10;7.27;;;16.90;1.00;;;;;;5083806;28;20418;-74
2022/10/14 14:42:49;;;;;;;10.53;7.40;;;16.90;1.00;;;;;;5086536;28;20483;-75
2022/10/14 14:45:21;;;;;;;13.60;7.57;;;16.90;1.00;;;;;;5089771;28;20621;-75
2022/10/14 14:47:56;;;;;;;10.07;7.13;;;16.80;1.00;;;;;;5086587;28;20409;-76
2022/10/14 14:50:34;;;;;;;12.83;8.33;;;16.90;1.00;;;;;;5090152;28;20420;-76
2022/10/14 14:53:15;;;;;;;10.67;7.03;;;17.00;1.00;;;;;;5078882;28;20452;-75
2022/10/14 14:55:48;;;;;;;12.13;7.53;;;17.00;1.00;;;;;;5087048;28;20892;-75
2022/10/14 14:58:34;;;;;;;17.67;7.60;;;17.10;1.00;;;;;;5077641;28;20437;-75
2022/10/14 15:01:00;;;;;;;16.03;7.83;;;17.30;1.00;;;;;;5075551;28;20461;-75
2022/10/14 15:03:30;;;;;;;10.73;7.00;;;17.50;1.00;;;;;;5078372;28;20441;-75
2022/10/14 15:06:14;;;;;;;13.83;7.80;;;17.40;1.00;;;;;;5080950;28;20205;-75
2022/10/14 15:09:08;;;;;;;12.63;7.10;;;17.50;1.00;;;;;;5076962;28;20439;-75
2022/10/14 15:11:44;;;;;;;11.40;6.27;;;17.40;1.00;;;;;;5077272;28;20412;-75
2022/10/14 15:14:46;;;;;;;28.40;7.20;;;17.30;1.00;;;;;;5083898;28;20426;-75
2022/10/14 15:17:44;;;;;;;17.50;7.40;;;17.20;1.00;;;;;;5033133;28;20420;-76
2022/10/14 15:23:47;;;;;;;15.87;7.93;;;17.00;1.00;;;;;;4961547;28;20394;-76
2022/10/14 15:26:35;;;;;;;17.67;8.13;;;16.90;1.00;;;;;;4955403;29;20435;-76
2022/10/14 15:29:19;;;;;;;13.70;7.40;;;16.90;1.00;;;;;;4954288;29;20514;-76
2022/10/14 15:35:30;;;;;;;13.13;8.87;;;16.60;1.00;;;;;;4944422;29;20380;-76
2022/10/14 15:38:17;;;;;;;19.63;7.07;;;16.70;1.00;;;;;;4954917;29;20538;-76
2022/10/14 15:41:24;;;;;;;18.17;7.70;;;16.60;1.00;;;;;;4954341;29;20441;-77
2022/10/14 15:43:50;;;;;;;13.70;8.40;;;16.60;1.00;;;;;;4954528;29;20422;-75
2022/10/14 15:49:14;;;;;;;16.03;8.77;;;16.60;1.00;;;;;;4955523;28;20244;-76
2022/10/14 15:51:41;;;;;;;18.90;8.30;;;16.60;1.00;;;;;;4951135;28;20444;-75
2022/10/14 15:54:16;;;;;;;12.77;8.70;;;16.50;1.00;;;;;;4979881;28;20766;-75
2022/10/14 15:56:42;;;;;;;17.93;9.60;;;16.60;2.10;;;;;;5050509;28;20386;-75
2022/10/14 15:59:08;;;;;;;19.10;9.87;;;16.50;1.70;;;;;;5079926;28;20440;-75
2022/10/14 16:01:44;;;;;;;14.40;10.17;;;16.50;4.30;;;;;;5078160;28;20489;-75
2022/10/14 16:04:36;;;;;;;19.63;11.00;;;16.50;6.90;;;;;;5082881;28;20385;-75
2022/10/14 16:07:02;;;;;;;22.93;11.07;;;16.50;8.30;;;;;;5088026;28;20430;-75
2022/10/14 16:09:30;;;;;;;15.60;10.83;;;16.50;8.50;;;;;;5085229;28;20383;-75
2022/10/14 16:12:00;;;;;;;14.90;10.37;;;16.50;8.10;;;;;;5090868;28;20200;-74
2022/10/14 16:14:30;;;;;;;16.27;9.73;;;16.50;11.20;;;;;;5077426;28;20771;-74
2022/10/14 16:17:01;;;;;;;14.70;10.70;;;16.50;14.50;;;;;;5083462;28;20430;-75
2022/10/14 16:19:30;;;;;;;17.67;10.30;;;16.50;14.50;;;;;;5088370;28;20962;-75
2022/10/14 16:21:56;;;;;;;13.80;10.33;;;16.40;17.70;;;;;;5076212;28;20456;-75
2022/10/14 16:24:24;;;;;;;23.27;11.00;;;16.50;17.00;;;;;;5080180;28;20417;-74
2022/10/14 16:26:54;;;;;;;13.40;10.30;;;16.50;14.70;;;;;;5079942;28;20388;-74
2022/10/14 16:29:30;;;;;;;13.87;10.10;;;16.50;17.80;;;;;;5079030;28;20422;-75
2022/10/14 16:31:56;;;;;;;15.20;10.60;;;16.50;16.90;;;;;;5079370;28;20450;-75
2022/10/14 16:34:25;;;;;;;18.53;10.73;;;16.50;15.30;;;;;;5087380;28;20440;-76
2022/10/14 16:36:51;;;;;;;21.17;11.57;;;16.50;18.20;;;;;;5075088;28;20182;-76
2022/10/14 16:39:24;;;;;;;15.87;10.07;;;16.30;22.10;;;;;;5084134;28;20974;-76
2022/10/14 16:42:12;;;;;;;15.70;10.10;;;16.30;26.90;;;;;;5081639;28;20825;-75
2022/10/14 16:44:38;;;;;;;14.87;9.70;;;16.30;26.20;;;;;;5078633;28;20400;-74
2022/10/14 16:47:16;;;;;;;14.70;10.60;;;16.30;26.80;;;;;;5079494;28;20418;-74
2022/10/14 16:50:36;;;;;;;16.73;9.60;;;16.30;27.20;;;;;;5081733;28;20420;-75
2022/10/14 16:56:54;;;;;;;33.20;10.40;;;16.10;39.30;;;;;;5046798;28;20414;-75
2022/10/14 16:59:21;;;;;;;13.17;9.70;;;16.10;47.30;;;;;;5043299;28;20523;-76
2022/10/14 17:01:47;;;;;;;18.73;8.90;;;16.10;47.40;;;;;;5049182;28;20817;-75
2022/10/14 17:04:14;;;;;;;17.63;10.97;;;16.10;47.60;;;;;;5048527;28;20468;-74
2022/10/14 17:06:49;;;;;;;17.53;10.70;;;16.10;47.30;;;;;;5048962;28;20412;-74
2022/10/14 17:09:18;;;;;;;17.90;10.90;;;16.00;47.30;;;;;;5041691;28;20400;-75
2022/10/14 17:11:45;;;;;;;17.10;10.90;;;16.00;47.30;;;;;;5042970;28;20417;-75
2022/10/14 17:14:33;;;;;;;17.83;10.73;;;16.00;47.30;;;;;;5043924;28;20906;-75
2022/10/14 17:17:38;;;;;;;17.80;11.23;;;16.00;47.30;;;;;;5044981;28;20405;-83
2022/10/14 17:23:32;;;;;;;21.20;12.03;;;16.00;47.30;;;;;;5033413;28;20420;-81
2022/10/14 17:29:20;;;;;;;18.53;11.67;;;16.00;47.20;;;;;;5083825;28;20895;-79
2022/10/14 17:35:08;;;;;;;20.17;11.37;;;16.00;47.20;;;;;;5083980;28;20418;-78
2022/10/14 17:41:05;;;;;;;27.13;14.07;;;15.90;47.50;;;;;;5089789;28;20225;-79
2022/10/14 17:46:54;;;;;;;18.30;11.50;;;16.00;58.00;;;;;;5084042;28;20378;-79
2022/10/14 17:49:30;;;;;;;24.60;12.30;;;16.00;58.40;;;;;;5081560;28;20490;-79
2022/10/14 17:52:30;;;;;;;23.43;12.77;;;16.00;58.60;;;;;;5078035;28;20425;-81
2022/10/14 17:58:17;;;;;;;17.30;11.60;;;16.00;59.60;;;;;;5084695;28;20424;-82
2022/10/14 18:07:26;;;;;;;16.37;11.40;;;16.00;61.50;;;;;;5080909;28;20407;-83
2022/10/14 18:13:14;;;;;;;20.57;12.17;;;15.90;68.60;;;;;;5089888;28;20691;-92
2022/10/14 18:22:24;;;;;;;14.10;11.50;;;15.80;85.90;;;;;;5096072;28;20451;-81
2022/10/14 18:28:11;;;;;;;17.93;10.97;;;15.90;84.00;;;;;;5076801;28;20531;-81
2022/10/14 18:34:00;;;;;;;17.47;11.00;;;15.90;81.40;;;;;;5089570;28;20189;-82
2022/10/14 18:39:47;;;;;;;18.87;10.90;;;16.00;72.10;;;;;;5076254;28;20417;-82
2022/10/14 18:42:49;;;;;;;18.63;11.53;;;16.00;73.60;;;;;;5076484;28;20433;-83
2022/10/14 18:46:00;;;;;;;15.87;10.80;;;16.00;73.40;;;;;;5092122;28;20174;-79
2022/10/14 18:55:39;;;;;;;16.43;10.53;;;16.00;67.40;;;;;;5082313;28;20407;-78
2022/10/14 19:01:30;;;;;;;18.93;10.00;;;15.90;71.40;;;;;;5079620;28;20487;-79
2022/10/14 19:07:42;;;;;;;15.53;10.20;;;15.90;72.90;;;;;;5082397;28;20404;-80
2022/10/14 19:10:42;;;;;;;12.80;9.77;;;16.00;72.70;;;;;;5094354;28;20427;-79
2022/10/14 19:19:51;;;;;;;13.63;9.40;;;15.80;71.20;;;;;;5089307;28;20386;-81
2022/10/14 19:23:12;;;;;;;17.43;9.67;;;15.90;77.00;;;;;;5091090;28;20445;-81
2022/10/14 19:25:42;;;;;;;16.73;10.10;;;16.00;75.00;;;;;;5087965;28;20257;-81
2022/10/14 19:28:30;;;;;;;15.30;8.73;;;16.00;71.80;;;;;;5093376;28;20907;-81
2022/10/14 19:31:19;;;;;;;15.03;9.10;;;16.00;73.70;;;;;;5076361;28;20747;-86
2022/10/14 19:33:50;;;;;;;16.13;9.63;;;16.00;73.00;;;;;;5088463;28;20425;-86
2022/10/14 19:40:13;;;;;;;14.20;8.10;;;15.90;71.30;;;;;;5090736;28;20407;-86
2022/10/14 19:46:09;;;;;;;15.63;8.10;;;16.00;71.70;;;;;;5083473;28;20419;-81